Time;durP1;ratioP1;P1;durP2;ratioP2;P2;SDS_P1;SDS_P2;PMS_P1;PMS_P2;Temp;Humidity;BMP_temperature;BMP_pressure;BME280_temperature;BME280_humidity;BME280_pressure;Samples;Min_cycle;Max_cycle;Signal;HPM_P1;HPM_P2
2023/03/23 00:01:53;;;;;;;;;;;;;;;;;;5057734;28;20408;-74
2023/03/23 00:04:20;;;;;;;;;;;;;;;;;;5057857;28;19908;-73
2023/03/23 00:06:46;;;;;;;;;;;;;;;;;;5057452;28;19944;-73
2023/03/23 00:09:12;;;;;;;;;;;;;;;;;;5057441;28;19951;-73
2023/03/23 00:11:39;;;;;;;;;;;;;;;;;;5057342;28;20276;-72
2023/03/23 00:14:05;;;;;;;;;;;;;;;;;;5057439;28;20425;-72
2023/03/23 00:16:31;;;;;;;;;;;;;;;;;;5057195;28;19960;-73
2023/03/23 00:18:57;;;;;;;;;;;;;;;;;;5057203;28;19935;-73
2023/03/23 00:21:25;;;;;;;;;;;;;;;;;;5057143;28;19909;-73
2023/03/23 00:23:51;;;;;;;;;;;;;;;;;;5057248;28;19909;-72
2023/03/23 00:26:16;;;;;;;;;;;;;;;;;;5057046;28;19916;-72
2023/03/23 00:28:42;;;;;;;;;;;;;;;;;;5057014;28;19913;-75
2023/03/23 00:31:08;;;;;;;;;;;;;;;;;;5055719;28;20289;-73
2023/03/23 00:33:37;;;;;;;;;;;;;;;;;;5057305;28;19915;-74
2023/03/23 00:36:03;;;;;;;;;;;;;;;;;;5055534;28;19919;-73
2023/03/23 00:38:29;;;;;;;;;;;;;;;;;;5056971;28;19909;-73
2023/03/23 00:40:57;;;;;;;;;;;;;;;;;;5055076;28;19971;-73
2023/03/23 00:43:24;;;;;;;;;;;;;;;;;;5056718;28;19913;-72
2023/03/23 00:45:52;;;;;;;;;;;;;;;;;;5056870;28;19909;-73
2023/03/23 00:48:18;;;;;;;;;;;;;;;;;;5056640;28;19909;-73
2023/03/23 00:50:44;;;;;;;;;;;;;;;;;;5056820;28;19909;-74
2023/03/23 00:53:10;;;;;;;;;;;;;;;;;;5056537;28;20270;-73
2023/03/23 00:55:36;;;;;;;;;;;;;;;;;;5056843;28;19909;-72
2023/03/23 00:58:02;;;;;;;;;;;;;;;;;;5056435;28;19923;-72
2023/03/23 01:00:28;;;;;;;;;;;;;;;;;;5054224;28;19908;-74
2023/03/23 01:02:54;;;;;;;;;;;;;;;;;;5056437;28;20009;-73
2023/03/23 01:05:20;;;;;;;;;;;;;;;;;;5056746;28;19954;-73
2023/03/23 01:07:46;;;;;;;;;;;;;;;;;;5056607;28;19909;-72
2023/03/23 01:10:12;;;;;;;;;;;;;;;;;;5056226;28;20446;-74
2023/03/23 01:12:38;;;;;;;;;;;;;;;;;;5056195;28;20369;-74
2023/03/23 01:15:04;;;;;;;;;;;;;;;;;;5056526;28;19908;-74
2023/03/23 01:17:30;;;;;;;;;;;;;;;;;;5056017;28;19913;-73
2023/03/23 01:19:56;;;;;;;;;;;;;;;;;;5056070;28;19909;-74
2023/03/23 01:22:22;;;;;;;;;;;;;;;;;;5056069;28;19913;-73
2023/03/23 01:24:48;;;;;;;;;;;;;;;;;;5055947;28;20277;-73
2023/03/23 01:27:14;;;;;;;;;;;;;;;;;;5055960;28;19999;-72
2023/03/23 01:29:40;;;;;;;;;;;;;;;;;;5055883;28;20002;-72
2023/03/23 01:32:06;;;;;;;;;;;;;;;;;;5055935;28;19908;-74
2023/03/23 01:34:32;;;;;;;;;;;;;;;;;;5055903;28;20336;-73
2023/03/23 01:36:58;;;;;;;;;;;;;;;;;;5055718;28;19913;-74
2023/03/23 01:39:24;;;;;;;;;;;;;;;;;;5055511;28;20280;-72
2023/03/23 01:41:49;;;;;;;;;;;;;;;;;;5055873;28;19908;-72
2023/03/23 01:44:15;;;;;;;;;;;;;;;;;;5055617;28;19909;-72
2023/03/23 01:46:41;;;;;;;;;;;;;;;;;;5055565;28;19908;-73
2023/03/23 01:49:08;;;;;;;;;;;;;;;;;;5055699;28;19909;-73
2023/03/23 01:51:34;;;;;;;;;;;;;;;;;;5055482;28;20289;-72
2023/03/23 01:54:00;;;;;;;;;;;;;;;;;;5054175;28;20020;-72
2023/03/23 01:56:26;;;;;;;;;;;;;;;;;;5055251;28;20380;-73
2023/03/23 01:58:52;;;;;;;;;;;;;;;;;;5054093;28;19958;-71
2023/03/23 02:01:18;;;;;;;;;;;;;;;;;;5055323;28;20368;-73
2023/03/23 02:03:44;;;;;;;;;;;;;;;;;;5055226;28;19909;-73
2023/03/23 02:06:10;;;;;;;;;;;;;;;;;;5055173;28;19905;-72
2023/03/23 02:08:36;;;;;;;;;;;;;;;;;;5053864;28;19909;-73
2023/03/23 02:11:04;;;;;;;;;;;;;;;;;;5055117;28;19931;-74
2023/03/23 02:13:30;;;;;;;;;;;;;;;;;;5054977;28;19908;-73
2023/03/23 02:15:56;;;;;;;;;;;;;;;;;;5055167;28;19958;-74
2023/03/23 02:18:22;;;;;;;;;;;;;;;;;;5054951;28;19919;-72
2023/03/23 02:20:48;;;;;;;;;;;;;;;;;;5055154;28;20013;-74
2023/03/23 02:23:15;;;;;;;;;;;;;;;;;;5054903;28;19971;-73
2023/03/23 02:25:40;;;;;;;;;;;;;;;;;;5054902;28;19958;-72
2023/03/23 02:28:07;;;;;;;;;;;;;;;;;;5054739;28;19909;-74
2023/03/23 02:30:33;;;;;;;;;;;;;;;;;;5054939;28;19909;-73
2023/03/23 02:32:59;;;;;;;;;;;;;;;;;;5054947;28;20278;-72
2023/03/23 02:35:25;;;;;;;;;;;;;;;;;;5054648;28;19909;-72
2023/03/23 02:37:51;;;;;;;;;;;;;;;;;;5054579;28;19912;-73
2023/03/23 02:40:17;;;;;;;;;;;;;;;;;;5054332;28;19927;-73
2023/03/23 02:42:43;;;;;;;;;;;;;;;;;;5054889;28;19952;-72
2023/03/23 02:45:09;;;;;;;;;;;;;;;;;;5053318;28;19908;-73
2023/03/23 02:47:35;;;;;;;;;;;;;;;;;;5054379;28;19912;-74
2023/03/23 02:50:01;;;;;;;;;;;;;;;;;;5054337;28;19995;-72
2023/03/23 02:52:27;;;;;;;;;;;;;;;;;;5054540;28;19951;-74
2023/03/23 02:54:53;;;;;;;;;;;;;;;;;;5054270;28;19909;-72
2023/03/23 02:57:19;;;;;;;;;;;;;;;;;;5054112;28;19913;-73
2023/03/23 02:59:45;;;;;;;;;;;;;;;;;;5054203;28;19970;-73
2023/03/23 03:02:11;;;;;;;;;;;;;;;;;;5054166;28;20331;-73
2023/03/23 03:04:39;;;;;;;;;;;;;;;;;;5054090;28;20058;-72
2023/03/23 03:07:05;;;;;;;;;;;;;;;;;;5052787;28;19916;-72
2023/03/23 03:09:31;;;;;;;;;;;;;;;;;;5054268;28;19909;-72
2023/03/23 03:11:57;;;;;;;;;;;;;;;;;;5054011;28;19915;-73
2023/03/23 03:14:23;;;;;;;;;;;;;;;;;;5053987;28;20345;-73
2023/03/23 03:16:49;;;;;;;;;;;;;;;;;;5053816;28;20392;-72
2023/03/23 03:19:15;;;;;;;;;;;;;;;;;;5053941;28;19923;-74
2023/03/23 03:21:41;;;;;;;;;;;;;;;;;;5054111;28;20432;-73
2023/03/23 03:24:10;;;;;;;;;;;;;;;;;;5053384;28;19916;-72
2023/03/23 03:26:36;;;;;;;;;;;;;;;;;;5054223;28;19909;-74
2023/03/23 03:29:02;;;;;;;;;;;;;;;;;;5054120;28;20261;-73
2023/03/23 03:31:28;;;;;;;;;;;;;;;;;;5053702;28;19908;-73
2023/03/23 03:33:54;;;;;;;;;;;;;;;;;;5053900;28;20400;-74
2023/03/23 03:36:20;;;;;;;;;;;;;;;;;;5053545;28;19920;-73
2023/03/23 03:38:46;;;;;;;;;;;;;;;;;;5053614;28;20254;-73
2023/03/23 03:41:12;;;;;;;;;;;;;;;;;;5053161;28;20371;-72
2023/03/23 03:43:38;;;;;;;;;;;;;;;;;;5053585;28;19909;-73
2023/03/23 03:46:04;;;;;;;;;;;;;;;;;;5053557;28;19909;-72
2023/03/23 03:48:30;;;;;;;;;;;;;;;;;;5053616;28;19913;-73
2023/03/23 03:50:56;;;;;;;;;;;;;;;;;;5053628;28;20362;-72
2023/03/23 03:53:22;;;;;;;;;;;;;;;;;;5053519;28;19913;-73
2023/03/23 03:55:49;;;;;;;;;;;;;;;;;;5053753;28;19916;-73
2023/03/23 03:58:15;;;;;;;;;;;;;;;;;;5053500;28;19958;-73
2023/03/23 04:00:41;;;;;;;;;;;;;;;;;;5053467;28;19909;-74
2023/03/23 04:03:08;;;;;;;;;;;;;;;;;;5053378;28;19908;-72
2023/03/23 04:05:36;;;;;;;;;;;;;;;;;;5052124;28;19909;-72
2023/03/23 04:08:02;;;;;;;;;;;;;;;;;;5053349;28;20462;-73
2023/03/23 04:10:28;;;;;;;;;;;;;;;;;;5053426;28;19916;-73
2023/03/23 04:12:55;;;;;;;;;;;;;;;;;;5053330;28;19908;-72
2023/03/23 04:15:21;;;;;;;;;;;;;;;;;;5052021;28;19909;-73
2023/03/23 04:17:47;;;;;;;;;;;;;;;;;;5053317;28;19919;-74
2023/03/23 04:20:17;;;;;;;;;;;;;;;;;;5053248;28;20333;-72
2023/03/23 04:22:43;;;;;;;;;;;;;;;;;;5053259;28;20258;-72
2023/03/23 04:25:10;;;;;;;;;;;;;;;;;;5053691;28;19955;-72
2023/03/23 04:27:36;;;;;;;;;;;;;;;;;;5053350;28;19916;-72
2023/03/23 04:30:02;;;;;;;;;;;;;;;;;;5053123;28;19913;-72
2023/03/23 04:32:28;;;;;;;;;;;;;;;;;;5053134;28;19981;-72
2023/03/23 04:34:54;;;;;;;;;;;;;;;;;;5053135;28;19916;-73
2023/03/23 04:37:20;;;;;;;;;;;;;;;;;;5056054;28;19913;-74
2023/03/23 04:39:46;;;;;;;;;;;;;;;;;;5056600;28;19944;-71
2023/03/23 04:42:13;;;;;;;;;;;;;;;;;;5056791;28;20377;-72
2023/03/23 04:44:39;;;;;;;;;;;;;;;;;;5056722;28;19912;-73
2023/03/23 04:47:09;;;;;;;;;;;;;;;;;;5056677;28;20380;-72
2023/03/23 04:49:35;;;;;;;;;;;;;;;;;;5056666;28;20008;-72
2023/03/23 04:52:02;;;;;;;;;;;;;;;;;;5056732;28;19909;-73
2023/03/23 04:54:28;;;;;;;;;;;;;;;;;;5056612;28;20427;-72
2023/03/23 04:56:54;;;;;;;;;;;;;;;;;;5056805;28;20399;-72
2023/03/23 04:59:21;;;;;;;;;;;;;;;;;;5056464;28;19995;-71
2023/03/23 05:01:47;;;;;;;;;;;;;;;;;;5056638;28;19995;-72
2023/03/23 05:04:16;;;;;;;;;;;;;;;;;;5056398;28;19913;-73
2023/03/23 05:06:44;;;;;;;;;;;;;;;;;;5056765;28;20322;-72
2023/03/23 05:09:10;;;;;;;;;;;;;;;;;;5056296;28;19916;-74
2023/03/23 05:11:36;;;;;;;;;;;;;;;;;;5056283;28;19908;-73
2023/03/23 05:14:02;;;;;;;;;;;;;;;;;;5056300;28;19915;-74
2023/03/23 05:16:28;;;;;;;;;;;;;;;;;;5056135;28;19913;-74
2023/03/23 05:18:57;;;;;;;;;;;;;;;;;;5056114;28;19909;-73
2023/03/23 05:21:23;;;;;;;;;;;;;;;;;;5056064;28;19999;-74
2023/03/23 05:23:54;;;;;;;;;;;;;;;;;;5056088;28;20373;-74
2023/03/23 05:26:20;;;;;;;;;;;;;;;;;;5054468;28;20377;-72
2023/03/23 05:28:46;;;;;;;;;;;;;;;;;;5055961;28;19909;-73
2023/03/23 05:31:13;;;;;;;;;;;;;;;;;;5055906;28;19909;-74
2023/03/23 05:33:38;;;;;;;;;;;;;;;;;;5055968;28;19935;-75
2023/03/23 05:36:06;;;;;;;;;;;;;;;;;;5055721;28;20429;-74
2023/03/23 05:38:32;;;;;;;;;;;;;;;;;;5055961;28;20007;-73
2023/03/23 05:41:00;;;;;;;;;;;;;;;;;;5055508;28;19991;-73
2023/03/23 05:43:26;;;;;;;;;;;;;;;;;;5054337;28;19913;-72
2023/03/23 05:45:52;;;;;;;;;;;;;;;;;;5055767;28;19922;-74
2023/03/23 05:48:18;;;;;;;;;;;;;;;;;;5055223;28;20304;-75
2023/03/23 05:50:45;;;;;;;;;;;;;;;;;;5055531;28;19913;-74
2023/03/23 05:53:12;;;;;;;;;;;;;;;;;;5055391;28;19968;-73
2023/03/23 05:55:38;;;;;;;;;;;;;;;;;;5055432;28;19909;-73
2023/03/23 05:58:04;;;;;;;;;;;;;;;;;;5055225;28;20007;-75
2023/03/23 06:00:30;;;;;;;;;;;;;;;;;;5055245;28;20006;-73
2023/03/23 06:02:56;;;;;;;;;;;;;;;;;;5055602;28;20336;-73
2023/03/23 06:05:23;;;;;;;;;;;;;;;;;;5055475;28;20489;-72
2023/03/23 06:07:49;;;;;;;;;;;;;;;;;;5053893;28;19908;-73
2023/03/23 06:10:16;;;;;;;;;;;;;;;;;;5055112;28;19995;-74
2023/03/23 06:12:42;;;;;;;;;;;;;;;;;;5055254;28;20361;-74
2023/03/23 06:15:08;;;;;;;;;;;;;;;;;;5055222;28;19908;-74
2023/03/23 06:17:34;;;;;;;;;;;;;;;;;;5054890;28;19912;-73
2023/03/23 06:20:00;;;;;;;;;;;;;;;;;;5054941;28;19909;-73
2023/03/23 06:22:26;;;;;;;;;;;;;;;;;;5055328;28;19908;-73
2023/03/23 06:24:52;;;;;;;;;;;;;;;;;;5054979;28;19948;-74
2023/03/23 06:27:18;;;;;;;;;;;;;;;;;;5054824;28;19908;-73
2023/03/23 06:29:44;;;;;;;;;;;;;;;;;;5054785;28;19909;-73
2023/03/23 06:32:10;;;;;;;;;;;;;;;;;;5054953;28;19909;-73
2023/03/23 06:34:36;;;;;;;;;;;;;;;;;;5054683;28;19916;-74
2023/03/23 06:37:02;;;;;;;;;;;;;;;;;;5054492;28;19912;-73
2023/03/23 06:39:28;;;;;;;;;;;;;;;;;;5054337;28;19924;-74
2023/03/23 06:41:54;;;;;;;;;;;;;;;;;;5054549;28;19915;-73
2023/03/23 06:44:20;;;;;;;;;;;;;;;;;;5054485;28;19909;-73
2023/03/23 06:46:47;;;;;;;;;;;;;;;;;;5054354;28;19962;-75
2023/03/23 06:49:13;;;;;;;;;;;;;;;;;;5054393;28;19913;-73
2023/03/23 06:51:39;;;;;;;;;;;;;;;;;;5054392;28;19916;-73
2023/03/23 06:54:05;;;;;;;;;;;;;;;;;;5054264;28;19958;-73
2023/03/23 06:56:31;;;;;;;;;;;;;;;;;;5054158;28;19920;-74
2023/03/23 06:58:57;;;;;;;;;;;;;;;;;;5053535;28;19959;-75
2023/03/23 07:01:23;;;;;;;;;;;;;;;;;;5052983;28;20396;-75
2023/03/23 07:03:49;;;;;;;;;;;;;;;;;;5054349;28;19909;-73
2023/03/23 07:06:15;;;;;;;;;;;;;;;;;;5054141;28;19905;-73
2023/03/23 07:08:41;;;;;;;;;;;;;;;;;;5054284;28;20419;-73
2023/03/23 07:11:07;;;;;;;;;;;;;;;;;;5054046;28;19931;-73
2023/03/23 07:13:33;;;;;;;;;;;;;;;;;;5054200;28;19983;-74
2023/03/23 07:16:00;;;;;;;;;;;;;;;;;;5054003;28;19905;-73
2023/03/23 07:18:26;;;;;;;;;;;;;;;;;;5052571;28;20262;-73
2023/03/23 07:20:52;;;;;;;;;;;;;;;;;;5053871;28;19913;-72
2023/03/23 07:23:19;;;;;;;;;;;;;;;;;;5054124;28;19963;-73
2023/03/23 07:25:46;;;;;;;;;;;;;;;;;;5053829;28;19988;-75
2023/03/23 07:28:12;;;;;;;;;;;;;;;;;;5053880;28;19996;-73
2023/03/23 07:30:38;;;;;;;;;;;;;;;;;;5052430;28;20377;-74
2023/03/23 07:33:03;;;;;;;;;;;;;;;;;;5052130;28;19952;-74
2023/03/23 07:35:30;;;;;;;;;;;;;;;;;;5053398;28;19909;-72
2023/03/23 07:37:56;;;;;;;;;;;;;;;;;;5052163;28;19962;-75
2023/03/23 07:40:22;;;;;;;;;;;;;;;;;;5053456;28;19974;-73
2023/03/23 07:42:50;;;;;;;;;;;;;;;;;;5053603;28;19909;-74
2023/03/23 07:45:16;;;;;;;;;;;;;;;;;;5052243;28;20288;-74
2023/03/23 07:47:42;;;;;;;;;;;;;;;;;;5053601;28;19909;-74
2023/03/23 07:50:08;;;;;;;;;;;;;;;;;;5053557;28;20338;-75
2023/03/23 07:52:34;;;;;;;;;;;;;;;;;;5053771;28;19908;-73
2023/03/23 07:55:01;;;;;;;;;;;;;;;;;;5053488;28;19999;-73
2023/03/23 07:57:27;;;;;;;;;;;;;;;;;;5053260;28;20008;-74
2023/03/23 07:59:53;;;;;;;;;;;;;;;;;;5053425;28;19959;-74
2023/03/23 08:02:19;;;;;;;;;;;;;;;;;;5053400;28;19909;-74
2023/03/23 08:04:47;;;;;;;;;;;;;;;;;;5052113;28;19945;-73
2023/03/23 08:07:13;;;;;;;;;;;;;;;;;;5053395;28;19913;-74
2023/03/23 08:09:39;;;;;;;;;;;;;;;;;;5053811;28;19909;-74
2023/03/23 08:12:05;;;;;;;;;;;;;;;;;;5057511;28;19913;-74
2023/03/23 08:14:32;;;;;;;;;;;;;;;;;;5057288;28;19954;-72
2023/03/23 08:16:58;;;;;;;;;;;;;;;;;;5057182;28;19920;-73
2023/03/23 08:19:24;;;;;;;;;;;;;;;;;;5057224;28;19978;-73
2023/03/23 08:21:50;;;;;;;;;;;;;;;;;;5057222;28;19912;-76
2023/03/23 08:24:16;;;;;;;;;;;;;;;;;;5057133;28;19916;-74
2023/03/23 08:26:42;;;;;;;;;;;;;;;;;;5057138;28;19913;-74
2023/03/23 08:29:08;;;;;;;;;;;;;;;;;;5057257;28;19915;-74
2023/03/23 08:31:35;;;;;;;;;;;;;;;;;;5055756;28;20321;-74
2023/03/23 08:34:01;;;;;;;;;;;;;;;;;;5057129;28;20290;-73
2023/03/23 08:36:28;;;;;;;;;;;;;;;;;;5056861;28;19960;-73
2023/03/23 08:38:54;;;;;;;;;;;;;;;;;;5056849;28;19909;-73
2023/03/23 08:41:19;;;;;;;;;;;;;;;;;;5056650;28;19927;-74
2023/03/23 08:43:46;;;;;;;;;;;;;;;;;;5056775;28;19952;-73
2023/03/23 08:46:12;;;;;;;;;;;;;;;;;;5056747;28;19909;-74
2023/03/23 08:48:40;;;;;;;;;;;;;;;;;;5056188;28;20194;-74
2023/03/23 08:51:06;;;;;;;;;;;;;;;;;;5057165;28;20400;-73
2023/03/23 08:53:33;;;;;;;;;;;;;;;;;;5056928;28;19913;-73
2023/03/23 08:55:59;;;;;;;;;;;;;;;;;;5056670;28;19909;-73
2023/03/23 08:58:25;;;;;;;;;;;;;;;;;;5056475;28;20340;-74
2023/03/23 09:01:00;;;;;;;;;;;;;;;;;;5056949;28;19908;-74
2023/03/23 09:03:26;;;;;;;;;;;;;;;;;;5056798;28;19937;-74
2023/03/23 09:05:53;;;;;;;;;;;;;;;;;;5056614;28;19909;-74
2023/03/23 09:08:18;;;;;;;;;;;;;;;;;;5056279;28;20419;-73
2023/03/23 09:10:49;;;;;;;;;;;;;;;;;;5056277;28;19909;-73
2023/03/23 09:13:15;;;;;;;;;;;;;;;;;;5056495;28;20258;-73
2023/03/23 09:15:42;;;;;;;;;;;;;;;;;;5056299;28;20007;-72
2023/03/23 09:18:08;;;;;;;;;;;;;;;;;;5056112;28;19913;-73
2023/03/23 09:20:33;;;;;;;;;;;;;;;;;;5056450;28;20384;-73
2023/03/23 09:22:59;;;;;;;;;;;;;;;;;;5055673;28;20437;-72
2023/03/23 09:25:26;;;;;;;;;;;;;;;;;;5056036;28;19909;-74
2023/03/23 09:27:53;;;;;;;;;;;;;;;;;;5056003;28;19995;-73
2023/03/23 09:30:19;;;;;;;;;;;;;;;;;;5054959;28;19909;-73
2023/03/23 09:32:45;;;;;;;;;;;;;;;;;;5056041;28;19919;-73
2023/03/23 09:35:15;;;;;;;;;;;;;;;;;;5055859;28;19950;-73
2023/03/23 09:37:43;;;;;;;;;;;;;;;;;;5055767;28;19917;-73
2023/03/23 09:40:09;;;;;;;;;;;;;;;;;;5055518;28;19979;-73
2023/03/23 09:42:36;;;;;;;;;;;;;;;;;;5055786;28;20385;-75
2023/03/23 09:45:02;;;;;;;;;;;;;;;;;;5054450;28;19909;-74
2023/03/23 09:47:28;;;;;;;;;;;;;;;;;;5055770;28;19916;-73
2023/03/23 09:49:54;;;;;;;;;;;;;;;;;;5055658;28;19909;-74
2023/03/23 09:52:20;;;;;;;;;;;;;;;;;;5056092;28;20003;-74
2023/03/23 09:54:46;;;;;;;;;;;;;;;;;;5055514;28;19998;-73
2023/03/23 09:57:12;;;;;;;;;;;;;;;;;;5055331;28;19912;-72
2023/03/23 09:59:38;;;;;;;;;;;;;;;;;;5055442;28;19948;-74
2023/03/23 10:02:06;;;;;;;;;;;;;;;;;;5055385;28;19909;-74
2023/03/23 10:04:32;;;;;;;;;;;;;;;;;;5055302;28;20435;-73
2023/03/23 10:06:58;;;;;;;;;;;;;;;;;;5055282;28;19913;-73
2023/03/23 10:09:24;;;;;;;;;;;;;;;;;;5055217;28;19908;-73
2023/03/23 10:11:53;;;;;;;;;;;;;;;;;;5055191;28;19909;-72
2023/03/23 10:14:19;;;;;;;;;;;;;;;;;;5055089;28;19916;-74
2023/03/23 10:16:45;;;;;;;;;;;;;;;;;;5054956;28;19916;-73
2023/03/23 10:19:12;;;;;;;;;;;;;;;;;;5053744;28;19936;-74
2023/03/23 10:21:38;;;;;;;;;;;;;;;;;;5055264;28;19916;-73
2023/03/23 10:24:04;;;;;;;;;;;;;;;;;;5054918;28;19909;-73
2023/03/23 10:26:30;;;;;;;;;;;;;;;;;;5054951;28;19909;-74
2023/03/23 10:28:56;;;;;;;;;;;;;;;;;;5054828;28;19975;-73
2023/03/23 10:31:22;;;;;;;;;;;;;;;;;;5054752;28;19909;-73
2023/03/23 10:33:48;;;;;;;;;;;;;;;;;;5053680;28;19908;-73
2023/03/23 10:36:14;;;;;;;;;;;;;;;;;;5054628;28;20427;-73
2023/03/23 10:38:40;;;;;;;;;;;;;;;;;;5055004;28;19999;-72
2023/03/23 10:41:08;;;;;;;;;;;;;;;;;;5054432;28;19962;-74
2023/03/23 10:43:34;;;;;;;;;;;;;;;;;;5054704;28;20426;-72
2023/03/23 10:46:00;;;;;;;;;;;;;;;;;;5054468;28;19909;-73
2023/03/23 10:48:26;;;;;;;;;;;;;;;;;;5054365;28;20376;-75
2023/03/23 10:50:53;;;;;;;;;;;;;;;;;;5054698;28;19913;-73
2023/03/23 10:53:20;;;;;;;;;;;;;;;;;;5054345;28;19915;-73
2023/03/23 10:55:46;;;;;;;;;;;;;;;;;;5054495;28;19919;-73
2023/03/23 10:58:12;;;;;;;;;;;;;;;;;;5054184;28;20011;-72
2023/03/23 11:00:39;;;;;;;;;;;;;;;;;;5054193;28;19955;-73
2023/03/23 11:03:06;;;;;;;;;;;;;;;;;;5054294;28;19916;-73
2023/03/23 11:05:32;;;;;;;;;;;;;;;;;;5054145;28;19909;-74
2023/03/23 11:07:58;;;;;;;;;;;;;;;;;;5054001;28;19916;-73
2023/03/23 11:10:24;;;;;;;;;;;;;;;;;;5054088;28;19988;-74
2023/03/23 11:12:50;;;;;;;;;;;;;;;;;;5054545;28;19970;-73
2023/03/23 11:15:16;;;;;;;;;;;;;;;;;;5052731;28;20416;-74
2023/03/23 11:17:42;;;;;;;;;;;;;;;;;;5053913;28;19912;-73
2023/03/23 11:20:09;;;;;;;;;;;;;;;;;;5053902;28;19951;-73
2023/03/23 11:22:35;;;;;;;;;;;;;;;;;;5053864;28;19916;-73
2023/03/23 11:25:01;;;;;;;;;;;;;;;;;;5053848;28;19909;-72
2023/03/23 11:27:27;;;;;;;;;;;;;;;;;;5053012;28;19932;-73
2023/03/23 11:29:53;;;;;;;;;;;;;;;;;;5053455;28;20345;-74
2023/03/23 11:32:19;;;;;;;;;;;;;;;;;;5053770;28;19944;-73
2023/03/23 11:34:45;;;;;;;;;;;;;;;;;;5054022;28;19920;-72
2023/03/23 11:37:12;;;;;;;;;;;;;;;;;;5053582;28;19913;-74
2023/03/23 11:39:38;;;;;;;;;;;;;;;;;;5053410;28;20003;-72
2023/03/23 11:42:04;;;;;;;;;;;;;;;;;;5053790;28;19948;-72
2023/03/23 11:44:31;;;;;;;;;;;;;;;;;;5053272;28;19909;-73
2023/03/23 11:46:57;;;;;;;;;;;;;;;;;;5053491;28;19948;-73
2023/03/23 11:49:23;;;;;;;;;;;;;;;;;;5053525;28;19952;-74
2023/03/23 11:51:49;;;;;;;;;;;;;;;;;;5053549;28;19916;-73
2023/03/23 11:54:14;;;;;;;;;;;;;;;;;;5053662;28;19909;-74
2023/03/23 11:56:40;;;;;;;;;;;;;;;;;;5053295;28;19919;-74
2023/03/23 11:59:06;;;;;;;;;;;;;;;;;;5053490;28;19995;-73
2023/03/23 12:01:32;;;;;;;;;;;;;;;;;;5053473;28;20074;-74
2023/03/23 12:03:59;;;;;;;;;;;;;;;;;;5053412;28;19916;-74
2023/03/23 12:06:26;;;;;;;;;;;;;;;;;;5053557;28;20308;-73
2023/03/23 12:08:51;;;;;;;;;;;;;;;;;;5053371;28;19909;-74
2023/03/23 12:11:19;;;;;;;;;;;;;;;;;;5053356;28;19909;-73
2023/03/23 12:13:52;;;;;;;;;;;;;;;;;;5053512;28;19908;-75
2023/03/23 12:16:18;;;;;;;;;;;;;;;;;;5053488;28;19916;-75
2023/03/23 12:18:44;;;;;;;;;;;;;;;;;;5053330;28;19916;-72
2023/03/23 12:21:10;;;;;;;;;;;;;;;;;;5053191;28;19909;-73
2023/03/23 12:23:37;;;;;;;;;;;;;;;;;;5053180;28;19909;-73
2023/03/23 12:26:03;;;;;;;;;;;;;;;;;;5053266;28;19919;-72
2023/03/23 12:28:29;;;;;;;;;;;;;;;;;;5053286;28;19999;-74
2023/03/23 12:30:55;;;;;;;;;;;;;;;;;;5053176;28;19994;-74
2023/03/23 12:33:21;;;;;;;;;;;;;;;;;;5053115;28;19908;-74
2023/03/23 12:35:47;;;;;;;;;;;;;;;;;;5053129;28;20373;-74
2023/03/23 12:38:12;;;;;;;;;;;;;;;;;;5053244;28;20384;-74
2023/03/23 12:40:39;;;;;;;;;;;;;;;;;;5052980;28;20004;-73
2023/03/23 12:43:05;;;;;;;;;;;;;;;;;;5053139;28;20266;-73
2023/03/23 12:45:32;;;;;;;;;;;;;;;;;;5052790;28;19909;-73
2023/03/23 12:47:58;;;;;;;;;;;;;;;;;;5052888;28;20432;-74
2023/03/23 12:50:24;;;;;;;;;;;;;;;;;;5053024;28;19916;-74
2023/03/23 12:52:50;;;;;;;;;;;;;;;;;;5052972;28;19909;-74
2023/03/23 12:55:16;;;;;;;;;;;;;;;;;;5052981;28;19909;-74
2023/03/23 12:57:42;;;;;;;;;;;;;;;;;;5055052;28;20392;-73
2023/03/23 13:00:11;;;;;;;;;;;;;;;;;;5056532;28;19991;-73
2023/03/23 13:02:37;;;;;;;;;;;;;;;;;;5056523;28;19916;-73
2023/03/23 13:05:04;;;;;;;;;;;;;;;;;;5056473;28;19913;-74
2023/03/23 13:07:30;;;;;;;;;;;;;;;;;;5056546;28;20308;-74
2023/03/23 13:09:56;;;;;;;;;;;;;;;;;;5056395;28;19908;-73
2023/03/23 13:12:22;;;;;;;;;;;;;;;;;;5056513;28;19916;-72
2023/03/23 13:14:48;;;;;;;;;;;;;;;;;;5056268;28;19909;-74
2023/03/23 13:17:14;;;;;;;;;;;;;;;;;;5056103;28;20373;-74
2023/03/23 13:19:41;;;;;;;;;;;;;;;;;;5056108;28;20405;-73
2023/03/23 13:22:07;;;;;;;;;;;;;;;;;;5056134;28;19963;-74
2023/03/23 13:24:33;;;;;;;;;;;;;;;;;;5056084;28;19952;-73
2023/03/23 13:27:00;;;;;;;;;;;;;;;;;;5056062;28;19916;-75
2023/03/23 13:29:27;;;;;;;;;;;;;;;;;;5056024;28;19908;-75
2023/03/23 13:31:56;;;;;;;;;;;;;;;;;;5056342;28;19912;-74
2023/03/23 13:34:26;;;;;;;;;;;;;;;;;;5054667;28;20369;-73
2023/03/23 13:36:53;;;;;;;;;;;;;;;;;;5055937;28;20274;-74
2023/03/23 13:39:19;;;;;;;;;;;;;;;;;;5055576;28;19991;-75
2023/03/23 13:41:45;;;;;;;;;;;;;;;;;;5056027;28;20423;-75
2023/03/23 13:44:12;;;;;;;;;;;;;;;;;;5055703;28;19940;-73
2023/03/23 13:46:39;;;;;;;;;;;;;;;;;;5055826;28;20292;-73
2023/03/23 13:49:07;;;;;;;;;;;;;;;;;;5055827;28;19916;-73
2023/03/23 13:51:33;;;;;;;;;;;;;;;;;;5055651;28;19908;-72
2023/03/23 13:53:59;;;;;;;;;;;;;;;;;;5055528;28;19908;-72
2023/03/23 13:56:26;;;;;;;;;;;;;;;;;;5055241;28;20292;-74
2023/03/23 13:58:56;;;;;;;;;;;;;;;;;;5055398;28;19909;-73
2023/03/23 14:01:25;;;;;;;;;;;;;;;;;;5054170;28;19967;-72
2023/03/23 14:03:52;;;;;;;;;;;;;;;;;;5055447;28;19954;-73
2023/03/23 14:06:21;;;;;;;;;;;;;;;;;;5054002;28;19912;-73
2023/03/23 14:08:51;;;;;;;;;;;;;;;;;;5054978;28;19954;-74
2023/03/23 14:11:18;;;;;;;;;;;;;;;;;;5053894;28;20277;-74
2023/03/23 14:13:45;;;;;;;;;;;;;;;;;;5055146;28;19928;-73
2023/03/23 14:16:12;;;;;;;;;;;;;;;;;;5055434;28;19947;-73
2023/03/23 14:18:39;;;;;;;;;;;;;;;;;;5055401;28;19962;-72
2023/03/23 14:21:05;;;;;;;;;;;;;;;;;;5055171;28;19912;-73
2023/03/23 14:23:32;;;;;;;;;;;;;;;;;;5054963;28;20015;-75
2023/03/23 14:26:04;;;;;;;;;;;;;;;;;;5054885;28;19908;-73
2023/03/23 14:28:30;;;;;;;;;;;;;;;;;;5055065;28;19908;-73
2023/03/23 14:30:57;;;;;;;;;;;;;;;;;;5054785;28;20003;-73
2023/03/23 14:33:23;;;;;;;;;;;;;;;;;;5054961;28;20317;-72
2023/03/23 14:35:49;;;;;;;;;;;;;;;;;;5054722;28;19909;-72
2023/03/23 14:38:15;;;;;;;;;;;;;;;;;;5054626;28;19913;-71
2023/03/23 14:40:42;;;;;;;;;;;;;;;;;;5054479;28;19921;-72
2023/03/23 14:43:08;;;;;;;;;;;;;;;;;;5054836;28;19915;-73
2023/03/23 14:45:44;;;;;;;;;;;;;;;;;;5054682;28;19916;-72
2023/03/23 14:48:13;;;;;;;;;;;;;;;;;;5054987;28;19915;-72
2023/03/23 14:50:40;;;;;;;;;;;;;;;;;;5054390;28;19908;-74
2023/03/23 14:53:06;;;;;;;;;;;;;;;;;;5054400;28;19913;-76
2023/03/23 14:55:32;;;;;;;;;;;;;;;;;;5054536;28;19912;-75
2023/03/23 14:58:05;;;;;;;;;;;;;;;;;;5054184;28;19919;-74
2023/03/23 15:00:31;;;;;;;;;;;;;;;;;;5054357;28;19915;-75
2023/03/23 15:02:58;;;;;;;;;;;;;;;;;;5054304;28;19913;-76
2023/03/23 15:05:24;;;;;;;;;;;;;;;;;;5054487;28;19908;-73
2023/03/23 15:07:51;;;;;;;;;;;;;;;;;;5054157;28;19912;-75
2023/03/23 15:10:17;;;;;;;;;;;;;;;;;;5054107;28;19916;-76
2023/03/23 15:12:44;;;;;;;;;;;;;;;;;;5054045;28;19916;-76
2023/03/23 15:15:14;;;;;;;;;;;;;;;;;;5054209;28;19952;-73
2023/03/23 15:17:44;;;;;;;;;;;;;;;;;;5054408;28;19912;-74
2023/03/23 15:20:10;;;;;;;;;;;;;;;;;;5053355;28;20415;-74
2023/03/23 15:22:37;;;;;;;;;;;;;;;;;;5053872;28;19915;-74
2023/03/23 15:25:04;;;;;;;;;;;;;;;;;;5053868;28;19919;-74
2023/03/23 15:27:30;;;;;;;;;;;;;;;;;;5053819;28;19915;-75
2023/03/23 15:29:57;;;;;;;;;;;;;;;;;;5053955;28;19959;-76
2023/03/23 15:32:23;;;;;;;;;;;;;;;;;;5053862;28;20250;-75
2023/03/23 15:34:49;;;;;;;;;;;;;;;;;;5053747;28;19916;-75
2023/03/23 15:37:15;;;;;;;;;;;;;;;;;;5053847;28;19920;-75
2023/03/23 15:39:41;;;;;;;;;;;;;;;;;;5052213;28;19920;-73
2023/03/23 15:42:07;;;;;;;;;;;;;;;;;;5053552;28;19996;-73
2023/03/23 15:44:33;;;;;;;;;;;;;;;;;;5053600;28;19963;-73
2023/03/23 15:46:59;;;;;;;;;;;;;;;;;;5053719;28;19916;-75
2023/03/23 15:49:25;;;;;;;;;;;;;;;;;;5052320;28;19909;-74
2023/03/23 15:51:51;;;;;;;;;;;;;;;;;;5053496;28;20055;-73
2023/03/23 15:54:17;;;;;;;;;;;;;;;;;;5052254;28;19956;-75
2023/03/23 15:56:42;;;;;;;;;;;;;;;;;;5053439;28;20336;-73
2023/03/23 15:59:08;;;;;;;;;;;;;;;;;;5053437;28;19908;-73
2023/03/23 16:01:34;;;;;;;;;;;;;;;;;;5053643;28;19995;-74
2023/03/23 16:04:01;;;;;;;;;;;;;;;;;;5053323;28;19909;-74
2023/03/23 16:06:26;;;;;;;;;;;;;;;;;;5053391;28;19909;-74
2023/03/23 16:08:52;;;;;;;;;;;;;;;;;;5053369;28;19916;-74
2023/03/23 16:11:18;;;;;;;;;;;;;;;;;;5053328;28;19909;-74
2023/03/23 16:13:44;;;;;;;;;;;;;;;;;;5053711;28;19913;-74
2023/03/23 16:16:10;;;;;;;;;;;;;;;;;;5053584;28;20384;-73
2023/03/23 16:18:36;;;;;;;;;;;;;;;;;;5053498;28;19908;-73
2023/03/23 16:21:02;;;;;;;;;;;;;;;;;;5053262;28;19909;-74
2023/03/23 16:23:28;;;;;;;;;;;;;;;;;;5053225;28;19959;-74
2023/03/23 16:25:54;;;;;;;;;;;;;;;;;;5053209;28;19912;-74
2023/03/23 16:28:20;;;;;;;;;;;;;;;;;;5053230;28;19909;-76
2023/03/23 16:30:46;;;;;;;;;;;;;;;;;;5053756;28;19932;-74
2023/03/23 16:33:12;;;;;;;;;;;;;;;;;;5057054;28;19909;-76
2023/03/23 16:35:38;;;;;;;;;;;;;;;;;;5057447;28;19916;-76
2023/03/23 16:38:04;;;;;;;;;;;;;;;;;;5056795;28;20408;-75
2023/03/23 16:40:30;;;;;;;;;;;;;;;;;;5057054;28;19925;-75